ADDS METAR Data INFO
IDs: Format: Raw Decoded Include TAF

Data at: 2350 UTC 24 Feb 2018

KGOP 242335Z AUTO 01005G13KT 10SM CLR 20/09 A2990 RMK AO2 LTG DSNT SE
KGOP 242315Z AUTO 33010G16KT 10SM CLR 21/10 A2987 RMK AO2 LTG DSNT SE AND S
KGOP 242255Z AUTO 34010KT 10SM CLR 22/13 A2987 RMK AO2 LTG DSNT E AND SE
KGOP 242235Z AUTO 34013G19KT 10SM CLR 21/14 A2986 RMK AO2
KGOP 242215Z AUTO 01005KT 10SM FEW032 FEW039 FEW049 21/16 A2986 RMK AO2
KGOP 242155Z AUTO 03010G15KT 10SM FEW030 BKN048 BKN060 20/17 A2985 RMK AO2
KGOP 242135Z AUTO 02012KT 10SM FEW031 SCT040 BKN049 21/17 A2983 RMK AO2
KGOP 242115Z AUTO 20009KT 10SM FEW034 SCT047 SCT055 25/18 A2981 RMK AO2
KGOP 242055Z AUTO 20011KT 10SM FEW033 FEW043 FEW100 25/18 A2982 RMK AO2
KGOP 242035Z AUTO 20010KT 10SM CLR 25/18 A2983 RMK AO2
KGOP 242015Z AUTO 19012KT 10SM FEW044 25/18 A2983 RMK AO2
KGOP 241955Z AUTO 21010KT 10SM CLR 24/18 A2983 RMK AO2
KGOP 241935Z AUTO 20011G16KT 10SM FEW027 FEW038 FEW047 24/19 A2984 RMK AO2
KGOP 241915Z AUTO 20015KT 10SM FEW038 FEW047 FEW080 25/19 A2986 RMK AO2
KGOP 241855Z AUTO 20012KT 10SM CLR 24/19 A2986 RMK AO2
KGOP 241835Z AUTO 19014KT 10SM CLR 23/19 A2987 RMK AO2
KGOP 241815Z AUTO 20011KT 9SM CLR 22/20 A2988 RMK AO2
KGOP 241755Z AUTO 20010KT 9SM FEW018 SCT023 SCT030 22/20 A2989 RMK AO2
KGOP 241735Z AUTO 22009KT 9SM BKN015 BKN021 BKN026 21/20 A2990 RMK AO2
KGOP 241715Z AUTO 22006G11KT 9SM BKN013 BKN018 21/20 A2989 RMK AO2
KGOP 241655Z AUTO 21006G13KT 9SM BKN019 BKN023 BKN065 21/20 A2989 RMK AO2
KGOP 241635Z AUTO 20009G15KT 8SM SCT019 BKN024 BKN065 21/21 A2989 RMK AO2
KGOP 241615Z AUTO 18010KT 2 1/2SM -DZ BKN018 OVC024 20/20 A2988 RMK AO2 VIS 1 3/4V5
KGOP 241555Z AUTO 19011G16KT 8SM BKN016 BKN020 20/20 A2988 RMK AO2
KGOP 241535Z AUTO 19013KT 7SM BKN016 BKN022 19/19 A2987 RMK AO2
KGOP 241515Z AUTO 19013KT 7SM FEW016 SCT023 19/19 A2987 RMK AO2
KGOP 241455Z AUTO 17009G14KT 5SM BR FEW016 SCT022 SCT027 19/19 A2985 RMK AO2
KGOP 241435Z AUTO 17009G15KT 5SM BR SCT019 SCT026 19/19 A2985 RMK AO2
KGOP 241415Z AUTO 17008G14KT 5SM BR FEW023 SCT028 19/19 A2986 RMK AO2
KGOP 241355Z AUTO 16010KT 3SM -DZ FEW025 SCT029 18/18 A2985 RMK AO2 P0002
KGOP 241335Z AUTO 16015KT 2SM -DZ SCT001 SCT009 BKN045 18/18 A2984 RMK AO2
KGOP 241315Z AUTO 13010G15KT 3/4SM -RA OVC001 16/16 A2984 RMK AO2
KGOP 241255Z AUTO 14007KT 1 1/2SM -RA SCT002 BKN013 OVC021 16/16 A2988 RMK AO2 P0011
KGOP 241235Z AUTO 16007KT 1 3/4SM VCTS RA BKN001 OVC013 14/14 A2989 RMK AO2 LTG DSNT SW AND W
KGOP 241215Z AUTO 00000KT M1/4SM FG OVC001 12/12 A2989 RMK AO2
KGOP 241155Z AUTO 00000KT M1/4SM FG 11/11 A2987 RMK AO2
KGOP 241135Z AUTO 00000KT M1/4SM FG 11/12 A2988 RMK AO2
KGOP 241115Z AUTO 00000KT M1/4SM FG OVC001 12/12 A2988 RMK AO2
KGOP 241055Z AUTO 00000KT M1/4SM FG OVC001 11/11 A2990 RMK AO2 P0001
KGOP 241035Z AUTO 00000KT 1/4SM FG OVC001 11/11 A2991 RMK AO2
KGOP 241015Z AUTO 00000KT 1/4SM -RA OVC001 11/11 A2991 RMK AO2
KGOP 240955Z AUTO 00000KT 1/4SM FG OVC001 11/11 A2992 RMK AO2
KGOP 240935Z AUTO 00000KT 1/4SM FG OVC001 11/11 A2992 RMK AO2
KGOP 240915Z AUTO 00000KT 1/2SM FG OVC001 11/11 A2992 RMK AO2
KGOP 240855Z AUTO 00000KT 1SM BR OVC001 11/11 A2996 RMK AO2
KGOP 240835Z AUTO 00000KT 3/4SM BR OVC001 11/11 A2997 RMK AO2
KGOP 240815Z AUTO 00000KT 3/4SM BR OVC001 11/11 A2998 RMK AO2
KGOP 240755Z AUTO 00000KT 1/2SM BR OVC001 11/11 A2999 RMK AO2
KGOP 240735Z AUTO 00000KT 1/4SM FG OVC001 11/11 A2999 RMK AO2
KGOP 240715Z AUTO 00000KT M1/4SM FG OVC001 13/13 A3000 RMK AO2
KGOP 240655Z AUTO 00000KT M1/4SM FG OVC001 12/13 A2999 RMK AO2
KGOP 240635Z AUTO 00000KT M1/4SM FG OVC001 13/13 A3000 RMK AO2
KGOP 240615Z AUTO 00000KT M1/4SM FG OVC001 13/13 A3000 RMK AO2
KGOP 240555Z AUTO 00000KT M1/4SM FG 13/13 A3001 RMK AO2
KGOP 240535Z AUTO 00000KT M1/4SM FG OVC001 13/13 A3001 RMK AO2
KGOP 240515Z AUTO 00000KT M1/4SM FG OVC001 13/13 A3003 RMK AO2
KGOP 240455Z AUTO 00000KT M1/4SM FG OVC001 13/13 A3004 RMK AO2
KGOP 240435Z AUTO 00000KT M1/4SM FG OVC001 13/13 A3004 RMK AO2
KGOP 240415Z AUTO 00000KT M1/4SM FG OVC001 13/13 A3004 RMK AO2
KGOP 240355Z AUTO 00000KT M1/4SM FG OVC001 13/13 A3005 RMK AO2
KGOP 240335Z AUTO 00000KT M1/4SM FG OVC001 13/13 A3004 RMK AO2
KGOP 240315Z AUTO 00000KT M1/4SM FG OVC001 13/13 A3005 RMK AO2
KGOP 240255Z AUTO 00000KT 1/4SM FG OVC001 13/13 A3005 RMK AO2
KGOP 240235Z AUTO 00000KT 1/4SM FG OVC001 13/13 A3005 RMK AO2
KGOP 240215Z AUTO 00000KT M1/4SM FG OVC001 13/13 A3005 RMK AO2
KGOP 240155Z AUTO 00000KT 1/4SM FG OVC001 13/13 A3005 RMK AO2
KGOP 240135Z AUTO 00000KT 1/4SM FG OVC001 13/13 A3004 RMK AO2
KGOP 240115Z AUTO 00000KT 1/4SM FG OVC001 13/13 A3003 RMK AO2
KGOP 240055Z AUTO 00000KT 1/2SM FG OVC001 13/13 A3003 RMK AO2
KGOP 240035Z AUTO 00000KT 1/2SM FG OVC001 13/13 A3003 RMK AO2
KGOP 240015Z AUTO 00000KT 1/4SM FG OVC001 13/13 A3003 RMK AO2
KGOP 232355Z AUTO 00000KT 1/2SM FG OVC001 13/13 A3003 RMK AO2
KGOP 232335Z AUTO 00000KT 1/2SM BR OVC001 13/13 A3003 RMK AO2
KGOP 232315Z AUTO 00000KT 3/4SM BR OVC001 13/13 A3004 RMK AO2
KGOP 232255Z AUTO 00000KT 3/4SM BR 13/13 A3004 RMK AO2
KGOP 232235Z AUTO 14004KT 2SM BR OVC002 13/13 A3004 RMK AO2
KGOP 232215Z AUTO 00000KT 3/4SM BR OVC001 13/13 A3005 RMK AO2
KGOP 232155Z AUTO 00000KT 1/2SM BR OVC001 13/13 A3005 RMK AO2
KGOP 232135Z AUTO 00000KT 3/4SM BR OVC002 13/13 A3006 RMK AO2
KGOP 232115Z AUTO 00000KT 1SM BR OVC002 13/13 A3007 RMK AO2
KGOP 232055Z AUTO 11004KT 1 1/4SM BR OVC002 13/13 A3007 RMK AO2
KGOP 232035Z AUTO 00000KT 1 3/4SM BR OVC002 12/12 A3009 RMK AO2
KGOP 232015Z AUTO 12004KT 3SM BR OVC003 13/12 A3010 RMK AO2
KGOP 231955Z AUTO 00000KT 3SM BR OVC004 13/12 A3010 RMK AO2
KGOP 231935Z AUTO 00000KT 6SM BR OVC005 13/12 A3012 RMK AO2
KGOP 231915Z AUTO 00000KT 5SM BR BKN004 12/11 A3013 RMK AO2
KGOP 231855Z AUTO 00000KT 9SM BKN006 12/11 A3014 RMK AO2
KGOP 231835Z AUTO 00000KT 10SM BKN006 12/10 A3015 RMK AO2
KGOP 231815Z AUTO 00000KT 10SM BKN006 11/10 A3016 RMK AO2
KGOP 231755Z AUTO 00000KT 10SM OVC006 11/09 A3018 RMK AO2
KGOP 231735Z AUTO 00000KT 10SM OVC005 10/09 A3018 RMK AO2
KGOP 231715Z AUTO 00000KT 10SM BKN005 BKN010 10/09 A3018 RMK AO2
KGOP 231655Z AUTO 00000KT 10SM BKN004 BKN011 09/08 A3019 RMK AO2
KGOP 231635Z AUTO 00000KT 10SM BKN004 BKN014 09/08 A3020 RMK AO2
KGOP 231615Z AUTO 00000KT 10SM SCT003 BKN007 BKN016 08/08 A3019 RMK AO2
KGOP 231555Z AUTO 00000KT 10SM SCT003 BKN008 BKN016 07/07 A3020 RMK AO2
KGOP 231535Z AUTO 00000KT 10SM FEW002 BKN008 06/06 A3022 RMK AO2
KGOP 231515Z AUTO 00000KT 10SM SCT002 BKN010 BKN014 06/06 A3022 RMK AO2
KGOP 231455Z AUTO 00000KT 7SM BKN002 BKN012 05/05 A3023 RMK AO2
KGOP 231435Z AUTO 00000KT 2 1/2SM BR OVC002 05/05 A3021 RMK AO2
KGOP 231415Z AUTO 04003KT 1SM BR OVC001 05/05 A3020 RMK AO2
KGOP 231355Z AUTO 00000KT 1 1/2SM BR OVC001 05/05 A3022 RMK AO2 P0001
KGOP 231335Z AUTO VRB03KT 1 1/2SM -RA OVC002 05/05 A3022 RMK AO2
KGOP 231315Z AUTO 28005G13KT 1SM -RA OVC001 05/05 A3023 RMK AO2
KGOP 231255Z AUTO VRB03G10KT 1SM -UP OVC001 05/05 A3017 RMK AO2
KGOP 231235Z AUTO 00000KT 1SM BR OVC001 05/05 A3018 RMK AO2
KGOP 231215Z AUTO 00000KT 1 1/4SM BR OVC001 05/05 A3018 RMK AO2
KGOP 231155Z AUTO 06005KT 1 3/4SM BR OVC002 05/05 A3017 RMK AO2